Terminal Aerodrome Forecast
Issued by NWS Atlanta, GA

Home | Current Version | Previous Version | Text Only | Print | Product List | Glossary On
Versions: 1 2 3 4 5 6 7 8 9 10 11 12 13 14 15 16 17 18 19 20 21 22 23 24 25 26 27 28 29 30 31 32 33 34 35 36 37
000
FTUS42 KFFC 050354 AAB
TAFATL
TAF AMD
KATL 050354Z 0504/0606 09012KT 4SM -RADZ BR OVC004
     FM050600 08010KT 2SM -RADZ BR OVC003
     FM051500 04005KT 3SM -RA BR OVC005
     FM051800 06005KT 5SM -RA BR OVC008
     FM052200 08006KT 4SM -RA BR OVC006
     FM060200 09012KT 3SM -RA BR OVC004=

USA.gov is the U.S. government's official web portal to all federal, state and local government web resources and services.